Portada
METAR-TAF:

METAR-TAF

Aeroports :

Tarawa, Kiribati

latitud: 01-21N, longitud: 172-55E, altitud: 2 m

Observació

L'informe es va fer fa 32 minuts, a les 12:00 UTC
Vent 12 kt del Est/Sud-Est
Temperatura 28°C
Humitat 84%
Pressió 1007 hPa
Visibilitat 10 km o més
Escasses núvols a una alçada de 2000 ft
Núvols disperses a una alçada de 30000 ft

METAR: NGTA 021200Z 11012KT 9999 FEW020 SCT300 28/25 Q1007

Hora: 02:32 (12:32 UTC)

Pronòstic

L'informe es va fer fa 1 hora i 20 minuts, a les 11:12 UTC
Pronòstic vàlid del 02 a les 12 UTC al 03 a les 12 UTC
Vent 9 kt del Est/Sud-Est
Visibilitat 10 km o més
Escasses núvols a una alçada de 1900 ft

TAF: NGTA 021112Z 0212/0312 12009KT 9999 FEW019

Observacions i pronòstics meteorològics de més de 4000 aeroports (METAR i TAF).

Les estacions disponibles són els punts grocs i vermells al mapa.

Posi el ratolí al punt desitjat per veure el nom de l'estació.

Feu clic per veure les observacions i els pronòstics meteorològics.

Per canviar el mapa: feu clic els botons verds amb una creu de color negre per apropar; al botó verd amb un guió per allunyar la imatge; o en les fletxes verdes per a mapes adjacents.


METAR-TAF: